Etusivu
METAR-TAF:

METAR-TAF

Lentoasemat :

Guilin, Kiina

Leveyspiiri: 25-20N, Pituuspiiri: 110-18E, korkeus merenpinnasta: 166 m

Tämänhetkinen sää

Tämä raportti tehtiin 1 tunti ja 12 minuuttia sitten, kello 23.00 UTC
Tuuli 2 kn eri suunnista
Lämpötila 19°C
Kosteus 83%
Ilmanpaine 1011 hPa
Näkyvyys 10 km tai enemmän
Muutamia pilviä 6000 ft:n korkeudessa

METAR: ZGKL 282300Z VRB01MPS 9999 FEW060 19/16 Q1011 NOSIG

Aika: 08:12 (00:12 UTC)

Sääennuste

Tämä raportti tehtiin 5 tuntia ja 1 minuuttia sitten, kello 19.11 UTC
Ennuste voimassa 29. päivästä klo 00 UTC - 29. päivään klo 24 UTC
Tuuli 6 kn etelästä
Näkyvyys 10 km tai enemmän
ei pilviä alle 1500 m:ssä eikä cumulonimbus-pilviä

TAF: ZGKL 281911Z 2900/2924 18003MPS CAVOK TX34/2908Z TN16/2923Z

Säähavainnot ja -ennusteet yli 4000 lentoasemalta (METAR- ja TAF-raportit).

Käytössä olevat sääasemat on merkitty karttaan keltaisilla ja punaisilla pisteillä.

Aseta hiiri pisteen päälle nähdäksesi sääaseman nimen.

Klikkaa sitten nähdäksesi säähavainnot ja -ennusteet.

Kartan vaihtaminen: klikkaa mustalla rastilla varustettuja vihreitä pisteitä, niin voit zoomata sisään; viivalla varustettua vihreää pistettä, niin voit zoomata ulos tai vihreitä nuolia, niin pääset viereisille kartoille.


METAR-TAF: